createdAt,value
2022-07-31T00:00:16.506Z,58.39
2022-07-31T00:02:44.657Z,58.90
2022-07-31T00:05:12.184Z,58.74
2022-07-31T00:07:39.409Z,59.01
2022-07-31T00:10:07.341Z,59.54
2022-07-31T00:12:37.194Z,59.62
2022-07-31T00:15:06.996Z,60.53
2022-07-31T00:17:34.427Z,60.51
2022-07-31T00:20:02.059Z,60.21
2022-07-31T00:22:29.319Z,61.32
2022-07-31T00:24:56.866Z,61.51
2022-07-31T00:27:24.048Z,61.61
2022-07-31T00:29:51.331Z,61.53
2022-07-31T00:32:18.755Z,61.81
2022-07-31T00:34:45.898Z,61.78
2022-07-31T00:37:13.042Z,61.86
2022-07-31T00:39:40.386Z,61.70
2022-07-31T00:42:17.454Z,62.47
2022-07-31T00:44:47.894Z,62.20
2022-07-31T00:47:16.574Z,62.56
2022-07-31T00:49:44.345Z,63.18
2022-07-31T00:52:11.740Z,63.55
2022-07-31T00:54:39.487Z,63.05
2022-07-31T00:57:07.189Z,63.45
2022-07-31T00:59:34.483Z,63.75
2022-07-31T01:02:01.906Z,63.58
2022-07-31T01:04:31.113Z,64.05
2022-07-31T01:07:01.076Z,64.09
2022-07-31T01:09:28.575Z,64.27
2022-07-31T01:12:19.117Z,64.69
2022-07-31T01:14:50.144Z,65.10
2022-07-31T01:17:18.081Z,65.07
2022-07-31T01:19:47.383Z,65.56
2022-07-31T01:22:46.048Z,65.87
2022-07-31T01:25:51.857Z,65.98
2022-07-31T01:28:21.788Z,66.61
2022-07-31T01:31:05.034Z,66.54
2022-07-31T01:33:46.347Z,67.31
2022-07-31T01:36:17.820Z,67.37
2022-07-31T01:38:46.458Z,67.52
2022-07-31T01:41:16.894Z,67.41
2022-07-31T01:43:48.126Z,67.85
2022-07-31T01:46:17.140Z,67.83
2022-07-31T01:48:44.906Z,68.02
2022-07-31T01:51:12.707Z,68.38
2022-07-31T01:53:40.296Z,68.49
2022-07-31T01:56:09.089Z,68.93
2022-07-31T01:58:39.016Z,68.89
2022-07-31T02:01:09.100Z,69.21
2022-07-31T02:03:43.935Z,69.02
2022-07-31T02:06:18.022Z,69.93
2022-07-31T02:08:46.559Z,69.88
2022-07-31T02:11:16.148Z,69.37
2022-07-31T02:13:43.870Z,69.91
2022-07-31T02:16:11.999Z,69.94
2022-07-31T02:18:39.466Z,69.56
2022-07-31T02:21:06.975Z,69.75
2022-07-31T02:23:34.687Z,69.94
2022-07-31T02:26:03.659Z,70.41
2022-07-31T02:28:32.386Z,70.42
2022-07-31T02:31:01.382Z,70.37
2022-07-31T02:33:29.014Z,70.47
2022-07-31T02:35:56.904Z,70.19
2022-07-31T02:38:26.992Z,71.30
2022-07-31T02:40:58.285Z,71.03
2022-07-31T02:43:26.804Z,71.20
2022-07-31T02:45:55.710Z,71.96
2022-07-31T02:48:24.016Z,71.56
2022-07-31T02:50:51.502Z,71.66
2022-07-31T02:53:18.831Z,71.96
2022-07-31T02:55:46.681Z,71.95
2022-07-31T02:58:14.725Z,72.13
2022-07-31T03:00:44.606Z,72.71
2022-07-31T03:03:11.825Z,71.99
2022-07-31T03:05:39.034Z,72.46
2022-07-31T03:08:06.279Z,71.71
2022-07-31T03:10:33.434Z,71.34
2022-07-31T03:13:01.658Z,71.32
2022-07-31T03:15:29.540Z,71.85
2022-07-31T03:17:56.856Z,72.18
2022-07-31T03:20:26.253Z,72.33
2022-07-31T03:22:53.461Z,71.79
2022-07-31T03:25:21.838Z,71.86
2022-07-31T03:27:52.722Z,72.11
2022-07-31T03:30:25.457Z,72.71
2022-07-31T03:32:54.317Z,73.10
2022-07-31T03:35:22.129Z,72.42
2022-07-31T03:37:49.676Z,72.82
2022-07-31T03:40:17.054Z,73.17
2022-07-31T03:42:47.980Z,72.98
2022-07-31T03:45:16.028Z,73.52
2022-07-31T03:47:43.311Z,73.53
2022-07-31T03:50:11.348Z,72.92
2022-07-31T03:52:38.592Z,73.37
2022-07-31T03:55:07.930Z,73.42
2022-07-31T03:57:36.852Z,73.15
2022-07-31T04:00:05.411Z,73.46
2022-07-31T04:02:34.582Z,73.47
2022-07-31T04:05:03.228Z,73.21
2022-07-31T04:07:32.979Z,73.41
2022-07-31T04:10:00.354Z,74.06
2022-07-31T04:12:27.598Z,73.49
2022-07-31T04:14:54.778Z,73.16
2022-07-31T04:17:22.044Z,72.76
2022-07-31T04:19:49.877Z,72.57
2022-07-31T04:22:17.265Z,72.77
2022-07-31T04:24:44.439Z,72.03
2022-07-31T04:27:12.995Z,71.97
2022-07-31T04:29:40.287Z,71.36
2022-07-31T04:32:07.813Z,71.34
2022-07-31T04:34:35.098Z,70.80
2022-07-31T04:37:02.315Z,70.32
2022-07-31T04:39:29.535Z,69.61
2022-07-31T04:41:56.799Z,69.50
2022-07-31T04:44:24.051Z,69.60
2022-07-31T04:46:51.251Z,69.09
2022-07-31T04:49:18.554Z,69.03
2022-07-31T04:51:45.770Z,68.94
2022-07-31T04:54:13.031Z,68.66
2022-07-31T04:56:43.160Z,68.43
2022-07-31T04:59:12.719Z,67.85
2022-07-31T05:01:41.000Z,67.64
2022-07-31T05:04:09.157Z,67.10
2022-07-31T05:06:44.123Z,67.06
2022-07-31T05:09:18.704Z,66.83
2022-07-31T05:11:48.223Z,66.67
2022-07-31T05:14:17.891Z,66.52
2022-07-31T05:16:45.159Z,65.93
2022-07-31T05:19:13.765Z,65.52
2022-07-31T05:21:53.435Z,64.93
2022-07-31T05:24:33.965Z,64.52
2022-07-31T05:27:02.470Z,64.12
2022-07-31T05:29:30.505Z,63.52
2022-07-31T05:32:00.555Z,63.25
2022-07-31T05:34:31.397Z,63.07
2022-07-31T05:37:01.215Z,62.96
2022-07-31T05:39:29.313Z,62.39
2022-07-31T05:41:56.488Z,62.23
2022-07-31T05:44:24.558Z,62.22
2022-07-31T05:49:19.516Z,60.93
2022-07-31T05:51:54.150Z,60.14
2022-07-31T05:54:22.286Z,60.18
2022-07-31T05:56:50.024Z,60.02
2022-07-31T05:59:17.616Z,59.76
2022-07-31T06:01:44.783Z,60.12
2022-07-31T06:04:12.008Z,61.09
2022-07-31T06:06:39.184Z,61.92
2022-07-31T06:09:06.587Z,62.11
2022-07-31T06:11:34.188Z,62.09
2022-07-31T06:14:01.385Z,61.87
2022-07-31T06:16:28.686Z,61.69
2022-07-31T06:18:56.104Z,61.88
2022-07-31T06:21:26.494Z,61.91
2022-07-31T06:23:55.996Z,61.62
2022-07-31T06:26:24.358Z,61.27
2022-07-31T06:28:54.226Z,61.10
2022-07-31T06:31:22.618Z,60.61
2022-07-31T06:33:50.833Z,60.28
2022-07-31T06:36:18.791Z,59.76
2022-07-31T06:38:46.119Z,59.66
2022-07-31T06:41:33.592Z,59.58
2022-07-31T06:44:01.530Z,59.13
2022-07-31T06:46:28.797Z,58.65
2022-07-31T06:48:56.092Z,57.74
2022-07-31T06:51:30.751Z,57.54
2022-07-31T06:54:03.313Z,57.32
2022-07-31T06:56:31.121Z,57.83
2022-07-31T06:58:58.982Z,58.16
2022-07-31T07:01:26.463Z,57.51
2022-07-31T07:03:54.641Z,57.46
2022-07-31T07:06:21.833Z,57.46
2022-07-31T07:08:49.129Z,57.04
2022-07-31T07:11:16.301Z,57.88
2022-07-31T07:13:46.158Z,57.64
2022-07-31T07:16:15.195Z,56.93
2022-07-31T07:18:43.256Z,56.95
2022-07-31T07:21:11.919Z,56.61
2022-07-31T07:23:39.487Z,56.25
2022-07-31T07:26:06.908Z,56.29
2022-07-31T07:28:34.988Z,55.83
2022-07-31T07:31:03.877Z,55.69
2022-07-31T07:33:41.738Z,54.55
2022-07-31T07:36:23.541Z,54.43
2022-07-31T07:38:54.807Z,53.17
2022-07-31T07:41:24.124Z,52.89
2022-07-31T07:43:52.324Z,51.47
2022-07-31T07:46:22.100Z,51.04
2022-07-31T07:48:51.103Z,50.92
2022-07-31T07:51:19.541Z,49.90
2022-07-31T07:53:47.114Z,49.74
2022-07-31T07:56:14.376Z,49.43
2022-07-31T07:58:41.937Z,49.32
2022-07-31T08:01:09.220Z,49.24
2022-07-31T08:03:51.465Z,48.44
2022-07-31T08:06:21.000Z,48.74
2022-07-31T08:08:48.444Z,48.57
2022-07-31T08:11:17.825Z,48.38
2022-07-31T08:13:51.193Z,48.23
2022-07-31T08:16:20.375Z,48.34
2022-07-31T08:18:51.627Z,47.82
2022-07-31T08:21:19.796Z,47.49
2022-07-31T08:23:47.459Z,47.03
2022-07-31T08:26:14.725Z,46.95
2022-07-31T08:28:49.783Z,47.12
2022-07-31T08:31:17.639Z,47.38
2022-07-31T08:33:45.793Z,47.60
2022-07-31T08:36:12.997Z,47.56
2022-07-31T08:38:40.374Z,47.61
2022-07-31T08:41:07.626Z,47.10
2022-07-31T08:44:01.862Z,47.59
2022-07-31T08:46:22.692Z,47.46
2022-07-31T08:48:53.483Z,47.41
2022-07-31T08:51:24.036Z,46.44
2022-07-31T08:53:51.764Z,46.25
2022-07-31T08:56:20.528Z,46.19
2022-07-31T08:58:47.730Z,46.18
2022-07-31T09:01:15.739Z,45.94
2022-07-31T09:03:43.286Z,45.40
2022-07-31T09:06:10.985Z,45.26
2022-07-31T09:08:38.442Z,45.06
2022-07-31T09:11:08.269Z,44.93
2022-07-31T09:13:35.937Z,44.00
2022-07-31T09:16:03.918Z,44.29
2022-07-31T09:18:31.483Z,43.81
2022-07-31T09:21:03.716Z,43.17
2022-07-31T09:23:32.186Z,43.12
2022-07-31T09:26:02.060Z,42.85
2022-07-31T09:28:34.006Z,43.54
2022-07-31T09:31:02.105Z,43.16
2022-07-31T09:33:30.489Z,43.97
2022-07-31T09:35:58.515Z,42.97
2022-07-31T09:38:33.749Z,43.26
2022-07-31T09:41:55.865Z,42.89
2022-07-31T09:44:10.590Z,41.52
2022-07-31T09:46:46.927Z,41.77
2022-07-31T09:49:14.836Z,41.21
2022-07-31T09:51:45.121Z,41.29
2022-07-31T09:54:25.373Z,41.53
2022-07-31T09:56:52.669Z,41.02
2022-07-31T09:59:20.008Z,41.86
2022-07-31T10:01:51.208Z,41.57
2022-07-31T10:04:19.751Z,40.27
2022-07-31T10:06:52.239Z,40.51
2022-07-31T10:09:20.922Z,40.43
2022-07-31T10:11:49.972Z,40.10
2022-07-31T10:14:44.811Z,40.18
2022-07-31T10:17:12.883Z,39.32
2022-07-31T10:19:42.324Z,38.35
2022-07-31T10:22:10.036Z,38.60
2022-07-31T10:24:47.718Z,38.21
2022-07-31T10:27:17.198Z,38.98
2022-07-31T10:29:44.880Z,39.26
2022-07-31T10:32:12.270Z,38.74
2022-07-31T10:34:39.799Z,39.26
2022-07-31T10:37:45.935Z,38.65
2022-07-31T10:40:20.124Z,38.54
2022-07-31T10:43:11.881Z,38.04
2022-07-31T10:45:50.061Z,37.46
2022-07-31T10:48:17.357Z,37.45
2022-07-31T10:50:44.778Z,36.83
2022-07-31T10:53:17.238Z,37.40
2022-07-31T10:55:45.055Z,37.31
2022-07-31T10:58:14.366Z,37.25
2022-07-31T11:00:41.804Z,36.78
2022-07-31T11:03:17.910Z,35.86
2022-07-31T11:06:01.485Z,36.47
2022-07-31T11:08:44.525Z,36.05
2022-07-31T11:11:12.813Z,35.26
2022-07-31T11:13:46.777Z,35.83
2022-07-31T11:16:13.983Z,34.75
2022-07-31T11:18:41.152Z,34.50
2022-07-31T11:21:36.066Z,34.92
2022-07-31T11:24:03.899Z,34.67
2022-07-31T11:26:41.034Z,34.78
2022-07-31T11:29:59.620Z,35.01
2022-07-31T11:32:16.801Z,35.35
2022-07-31T11:34:53.924Z,34.54
2022-07-31T11:37:35.314Z,33.90
2022-07-31T11:40:14.026Z,32.98
2022-07-31T11:42:59.752Z,33.45
2022-07-31T11:45:33.342Z,32.52
2022-07-31T11:48:12.963Z,32.28
2022-07-31T11:50:41.856Z,32.91
2022-07-31T11:53:09.436Z,33.68
2022-07-31T11:55:46.485Z,33.73
2022-07-31T11:58:15.200Z,33.25
2022-07-31T12:00:53.031Z,32.83
2022-07-31T12:03:23.119Z,32.64
2022-07-31T12:05:52.339Z,33.05
2022-07-31T12:08:20.343Z,32.68
2022-07-31T12:10:47.967Z,32.35
2022-07-31T12:13:19.140Z,32.77
2022-07-31T12:16:06.061Z,32.35
2022-07-31T12:18:46.480Z,31.97
2022-07-31T12:21:14.136Z,32.50
2022-07-31T12:23:43.996Z,31.61
2022-07-31T12:26:13.391Z,31.65
2022-07-31T12:28:40.787Z,32.02
2022-07-31T12:31:07.920Z,32.75
2022-07-31T12:33:42.699Z,33.46
2022-07-31T12:36:14.677Z,33.86
2022-07-31T12:38:45.127Z,34.08
2022-07-31T12:41:13.576Z,34.56
2022-07-31T12:43:50.969Z,34.83
2022-07-31T12:46:33.668Z,34.80
2022-07-31T12:49:01.202Z,34.79
2022-07-31T12:51:45.637Z,34.54
2022-07-31T12:54:18.034Z,35.52
2022-07-31T12:56:46.535Z,36.00
2022-07-31T12:59:14.175Z,36.40
2022-07-31T13:01:41.693Z,36.19
2022-07-31T13:04:18.902Z,36.27
2022-07-31T13:06:48.852Z,36.21
2022-07-31T13:09:16.218Z,36.12
2022-07-31T13:11:46.871Z,35.15
2022-07-31T13:14:19.765Z,34.68
2022-07-31T13:16:47.944Z,34.73
2022-07-31T13:19:15.470Z,33.33
2022-07-31T13:21:48.378Z,31.74
2022-07-31T13:24:18.651Z,32.06
2022-07-31T13:26:46.107Z,30.22
2022-07-31T13:29:13.465Z,29.57
2022-07-31T13:31:40.593Z,27.73
2022-07-31T13:34:07.722Z,27.51
2022-07-31T13:36:38.830Z,27.77
2022-07-31T13:39:07.295Z,28.09
2022-07-31T13:41:35.602Z,27.87
2022-07-31T13:44:03.682Z,27.57
2022-07-31T13:46:31.608Z,27.69
2022-07-31T13:48:59.564Z,27.33
2022-07-31T13:51:29.322Z,27.55
2022-07-31T13:53:56.574Z,27.83
2022-07-31T13:56:39.532Z,25.91
2022-07-31T13:59:11.721Z,26.23
2022-07-31T14:02:04.574Z,25.79
2022-07-31T14:04:28.578Z,25.59
2022-07-31T14:07:00.940Z,26.23
2022-07-31T14:09:28.233Z,25.49
2022-07-31T14:11:56.153Z,25.58
2022-07-31T14:14:23.592Z,25.58
2022-07-31T14:16:51.083Z,24.83
2022-07-31T14:19:18.328Z,23.64
2022-07-31T14:21:56.313Z,21.92
2022-07-31T14:24:32.510Z,19.27
2022-07-31T14:26:59.607Z,18.21
2022-07-31T14:29:27.038Z,17.15
2022-07-31T14:31:54.172Z,16.91
2022-07-31T14:34:21.254Z,16.76
2022-07-31T14:36:48.388Z,15.44
2022-07-31T14:39:15.859Z,13.56
2022-07-31T14:41:43.293Z,12.58
2022-07-31T14:44:10.408Z,11.40
2022-07-31T14:46:37.535Z,11.39
2022-07-31T14:49:05.392Z,10.62
2022-07-31T14:51:32.694Z,11.00
2022-07-31T14:53:59.918Z,10.16
2022-07-31T14:56:45.441Z,9.19
2022-07-31T14:59:14.181Z,9.42
2022-07-31T15:01:41.579Z,8.88
2022-07-31T15:04:08.708Z,8.22
2022-07-31T15:06:55.510Z,8.53
2022-07-31T15:09:24.305Z,10.52
2022-07-31T15:12:00.526Z,11.54
2022-07-31T15:14:29.796Z,12.60
2022-07-31T15:16:57.302Z,13.21
2022-07-31T15:19:24.427Z,14.16
2022-07-31T15:22:15.856Z,11.96
2022-07-31T15:24:43.675Z,10.64
2022-07-31T15:27:15.440Z,9.10
2022-07-31T15:30:00.561Z,10.16
2022-07-31T15:32:30.144Z,8.33
2022-07-31T15:34:57.272Z,7.14
2022-07-31T15:37:24.365Z,7.62
2022-07-31T15:40:02.272Z,7.71
2022-07-31T15:42:38.213Z,9.30
2022-07-31T15:45:10.744Z,10.41
2022-07-31T15:47:39.186Z,9.49
2022-07-31T15:50:07.280Z,9.00
2022-07-31T15:52:34.525Z,10.08
2022-07-31T15:55:02.160Z,10.73
2022-07-31T15:57:29.352Z,12.28
2022-07-31T15:59:56.640Z,13.99
2022-07-31T16:02:24.436Z,15.75
2022-07-31T16:04:54.869Z,17.19
2022-07-31T16:08:28.664Z,18.86
2022-07-31T16:10:15.288Z,19.56
2022-07-31T16:12:45.606Z,19.98
2022-07-31T16:15:13.239Z,20.42
2022-07-31T16:17:40.847Z,21.15
2022-07-31T16:20:11.858Z,22.37
2022-07-31T16:22:41.778Z,23.34
2022-07-31T16:25:10.401Z,23.07
2022-07-31T16:27:37.760Z,20.58
2022-07-31T16:30:06.817Z,21.16
2022-07-31T16:32:34.092Z,21.27
2022-07-31T16:35:01.831Z,22.63
2022-07-31T16:37:51.712Z,23.04
2022-07-31T16:40:28.136Z,23.60
2022-07-31T16:42:56.786Z,24.46
2022-07-31T16:45:23.905Z,24.91
2022-07-31T16:47:51.923Z,24.59
2022-07-31T16:50:19.766Z,25.30
2022-07-31T16:52:50.088Z,25.40
2022-07-31T16:55:19.937Z,25.47
2022-07-31T16:57:47.079Z,25.27
2022-07-31T17:00:14.440Z,25.57
2022-07-31T17:02:41.669Z,25.58
2022-07-31T17:05:08.871Z,25.84
2022-07-31T17:07:36.773Z,25.87
2022-07-31T17:10:04.279Z,25.82
2022-07-31T17:12:31.442Z,25.89
2022-07-31T17:14:58.603Z,26.20
2022-07-31T17:17:25.712Z,26.37
2022-07-31T17:19:55.139Z,26.47
2022-07-31T17:22:22.501Z,26.45
2022-07-31T17:24:51.543Z,26.87
2022-07-31T17:27:20.403Z,27.52
2022-07-31T17:29:47.549Z,27.93
2022-07-31T17:32:14.692Z,27.56
2022-07-31T17:34:45.001Z,28.05
2022-07-31T17:37:12.606Z,28.12
2022-07-31T17:39:40.221Z,27.78
2022-07-31T17:42:09.493Z,28.25
2022-07-31T17:44:37.677Z,28.36
2022-07-31T17:47:06.565Z,28.42
2022-07-31T17:49:34.203Z,28.93
2022-07-31T17:52:01.406Z,28.68
2022-07-31T17:54:30.136Z,28.90
2022-07-31T17:56:57.468Z,29.07
2022-07-31T17:59:25.519Z,29.12
2022-07-31T18:01:59.421Z,29.07
2022-07-31T18:04:30.691Z,29.46
2022-07-31T18:06:58.933Z,30.00
2022-07-31T18:09:26.408Z,30.33
2022-07-31T18:11:54.007Z,31.00
2022-07-31T18:14:24.357Z,31.11
2022-07-31T18:16:52.470Z,30.72
2022-07-31T18:19:21.451Z,30.99
2022-07-31T18:21:48.834Z,31.77
2022-07-31T18:24:15.981Z,31.49
2022-07-31T18:26:43.105Z,31.92
2022-07-31T18:29:10.408Z,32.14
2022-07-31T18:31:37.565Z,31.59
2022-07-31T18:34:05.067Z,31.91
2022-07-31T18:36:33.205Z,32.33
2022-07-31T18:39:00.905Z,32.10
2022-07-31T18:41:28.318Z,31.93
2022-07-31T18:43:55.574Z,32.47
2022-07-31T18:46:24.610Z,32.99
2022-07-31T18:48:55.845Z,32.95
2022-07-31T18:51:24.981Z,33.16
2022-07-31T18:53:54.524Z,33.27
2022-07-31T18:56:23.508Z,33.77
2022-07-31T18:58:51.815Z,34.53
2022-07-31T19:01:19.060Z,34.26
2022-07-31T19:03:46.604Z,34.37
2022-07-31T19:06:13.766Z,34.70
2022-07-31T19:08:40.952Z,34.70
2022-07-31T19:11:08.071Z,34.62
2022-07-31T19:13:35.283Z,34.84
2022-07-31T19:16:02.613Z,34.95
2022-07-31T19:18:29.736Z,35.10
2022-07-31T19:21:22.864Z,36.32
2022-07-31T19:23:44.351Z,36.11
2022-07-31T19:26:11.496Z,36.67
2022-07-31T19:28:39.856Z,37.12
2022-07-31T19:31:07.425Z,36.81
2022-07-31T19:33:34.528Z,37.17
2022-07-31T19:36:03.152Z,37.46
2022-07-31T19:38:31.625Z,37.12
2022-07-31T19:40:59.137Z,38.75
2022-07-31T19:43:26.654Z,38.47
2022-07-31T19:46:09.786Z,38.97
2022-07-31T19:48:40.812Z,39.49
2022-07-31T19:51:08.026Z,39.62
2022-07-31T19:53:35.161Z,39.95
2022-07-31T19:56:05.671Z,39.62
2022-07-31T19:58:34.797Z,39.73
2022-07-31T20:01:03.661Z,39.58
2022-07-31T20:03:31.113Z,39.37
2022-07-31T20:05:58.394Z,39.70
2022-07-31T20:08:25.525Z,40.00
2022-07-31T20:10:52.977Z,40.66
2022-07-31T20:13:20.295Z,40.62
2022-07-31T20:15:52.458Z,40.49
2022-07-31T20:18:27.258Z,40.94
2022-07-31T20:20:57.018Z,41.07
2022-07-31T20:23:27.620Z,40.63
2022-07-31T20:25:55.006Z,40.93
2022-07-31T20:28:22.151Z,40.91
2022-07-31T20:30:49.555Z,40.59
2022-07-31T20:33:16.676Z,41.04
2022-07-31T20:35:48.471Z,40.63
2022-07-31T20:38:18.308Z,41.44
2022-07-31T20:40:48.038Z,41.97
2022-07-31T20:43:20.859Z,41.99
2022-07-31T20:45:48.222Z,41.86
2022-07-31T20:48:21.040Z,42.13
2022-07-31T20:50:48.618Z,42.37
2022-07-31T20:53:16.584Z,41.82
2022-07-31T20:55:49.266Z,41.38
2022-07-31T20:58:20.868Z,41.30
2022-07-31T21:00:49.117Z,41.09
2022-07-31T21:03:16.717Z,41.36
2022-07-31T21:05:44.879Z,41.75
2022-07-31T21:08:12.489Z,42.10
2022-07-31T21:10:39.705Z,41.72
2022-07-31T21:13:06.879Z,41.28
2022-07-31T21:15:43.129Z,41.61
2022-07-31T21:18:18.788Z,41.64
2022-07-31T21:20:51.709Z,42.48
2022-07-31T21:23:24.253Z,42.31
2022-07-31T21:25:57.096Z,41.99
2022-07-31T21:28:26.031Z,42.87
2022-07-31T21:30:56.631Z,43.52
2022-07-31T21:33:25.228Z,44.31
2022-07-31T21:35:53.174Z,46.66
2022-07-31T21:38:20.646Z,46.89
2022-07-31T21:40:48.335Z,47.31
2022-07-31T21:43:18.786Z,47.98
2022-07-31T21:45:57.450Z,48.69
2022-07-31T21:48:29.732Z,48.70
2022-07-31T21:50:56.988Z,49.32
2022-07-31T21:53:24.566Z,50.23
2022-07-31T21:55:52.097Z,50.10
2022-07-31T21:58:19.381Z,50.24
2022-07-31T22:00:46.599Z,49.00
2022-07-31T22:03:13.774Z,47.79
2022-07-31T22:05:59.937Z,49.19
2022-07-31T22:08:27.076Z,48.10
2022-07-31T22:10:54.238Z,48.12
2022-07-31T22:13:21.452Z,47.40
2022-07-31T22:15:58.228Z,48.13
2022-07-31T22:18:28.987Z,49.04
2022-07-31T22:20:56.876Z,49.02
2022-07-31T22:23:24.460Z,48.68
2022-07-31T22:25:51.604Z,48.00
2022-07-31T22:28:22.507Z,48.63
2022-07-31T22:30:51.196Z,49.49
2022-07-31T22:33:18.686Z,48.13
2022-07-31T22:36:00.238Z,48.29
2022-07-31T22:38:29.786Z,49.11
2022-07-31T22:40:58.421Z,47.65
2022-07-31T22:44:10.174Z,47.91
2022-07-31T22:46:13.588Z,47.83
2022-07-31T22:48:41.201Z,48.50
2022-07-31T22:51:09.131Z,48.77
2022-07-31T22:53:42.394Z,49.83
2022-07-31T22:56:09.599Z,49.78
2022-07-31T22:58:36.701Z,50.92
2022-07-31T23:01:03.998Z,50.93
2022-07-31T23:03:31.117Z,51.93
2022-07-31T23:06:02.549Z,52.05
2022-07-31T23:08:45.384Z,52.67
2022-07-31T23:11:12.781Z,52.67
2022-07-31T23:13:40.031Z,53.53
2022-07-31T23:16:07.141Z,53.69
2022-07-31T23:18:34.255Z,53.95
2022-07-31T23:21:01.392Z,53.98
2022-07-31T23:23:28.506Z,54.45
2022-07-31T23:25:55.630Z,54.71
2022-07-31T23:28:22.783Z,55.29
2022-07-31T23:30:50.364Z,56.01
2022-07-31T23:33:18.733Z,56.73
2022-07-31T23:35:45.837Z,57.13
2022-07-31T23:38:12.978Z,57.55
2022-07-31T23:40:40.153Z,57.90
2022-07-31T23:43:07.477Z,58.02
2022-07-31T23:45:36.064Z,58.19
2022-07-31T23:48:04.381Z,58.05
2022-07-31T23:50:32.083Z,59.05
2022-07-31T23:52:59.281Z,58.96
2022-07-31T23:55:26.445Z,58.99
2022-07-31T23:57:53.582Z,59.08
